Country
Station

 

Weather  for  Price, Carbon County Airport  -  United States    United States

  
18 °C (64 °F)
    
 
 

Current METAR for Price, Carbon County Airport is :

KPUC 020953Z AUTO 35007KT 10SM CLR 18/M07 A3017 RMK AO2 SLP116 T01831067

 

This is a report for Price, Carbon County Airport - United States.
 
The report was made 26 minutes ago, at 09:53 UTC .
The wind was blowing at a speed of 3.6 meters per second (8.1 miles per hour) from north (350°).
 
The temperature was 18 °C (64 °F), with a dew-point at -7 °C (19 °F).
The atmospheric pressure was 1022 hPa (30.17 inHg).
The relative humidity was 17.5%.
 
The sky was clear.
 
The overall visibility was 16.1 kilometers (10.0 miles).
 

 
 
 
 

Country :   A   B   C   D   E   F   G   H   I   J   K   L   M   N   O   P   Q   R   S   T   U   V   W   Y   Z

 

Site Info  |  Disclaimer  |  Credits  |  Privacy
Contact us  |  Add to favorites
© 2013-2020 METARs - All rights reserved